Terminal Aerodrome Forecast
Issued by NWS

Home | Current Version | Previous Version | Text Only | Print | Product List | Glossary On
Versions: 1 2 3 4 5 6 7 8 9 10 11 12 13 14 15 16 17 18 19 20
000
FTUS43 KLSX 070821 AAA
TAFCPS
TAF AMD
KCPS 070821Z 0708/0806 26008KT 5SM -RA VCTS SCT015CB OVC030
      TEMPO 0709/0712 2SM -RA BR SCT005 OVC010
     FM071200 30008KT P6SM -SHRA OVC010
     FM072100 01008KT P6SM VCSH OVC015
     FM080100 05007KT P6SM SCT025 BKN050=

USA.gov is the U.S. government's official web portal to all federal, state and local government web resources and services.